Aviation Digital Data Service (ADDS)

Output produced by TAFs form (2308 UTC 15 July 2018)
found at http://www.aviationweather.gov/adds/tafs/
 
METAR text: RJSI 152240Z 07003KT 030V100 9999 FEW030 SCT100 BKN/// 25/23 Q1011 RMK 1CU030 3AC100 A2986
Conditions at: RJSI (HANAMAKI AIRPORT, JP) observed 2240 UTC 15 July 2018
Temperature: 25.0°C (77°F)
Dewpoint: 23.0°C (73°F) [RH = 89%]
Pressure (altimeter): 29.85 inches Hg (1011.0 mb)
Winds: from the ENE (70 degrees) at 3 MPH (3 knots; 1.6 m/s)
Visibility: 6 or more miles (10+ km)
Ceiling: at least 12,000 feet AGL
Clouds: few clouds at 3000 feet AGL
scattered clouds at 10000 feet AGL
Weather: no significant weather observed at this time